sensor_id;sensor_type;location;lat;lon;timestamp;pressure;altitude;pressure_sealevel;temperature;humidity
63006;BME280;53704;52.532;6.426;2023-04-08T00:01:01;102278.06;;;2.97;100.00
63006;BME280;53704;52.532;6.426;2023-04-08T00:03:26;102273.34;;;3.02;100.00
63006;BME280;53704;52.532;6.426;2023-04-08T00:05:52;102274.38;;;3.17;100.00
63006;BME280;53704;52.532;6.426;2023-04-08T00:08:17;102271.19;;;3.10;100.00
63006;BME280;53704;52.532;6.426;2023-04-08T00:10:43;102280.00;;;3.11;100.00
63006;BME280;53704;52.532;6.426;2023-04-08T00:13:08;102281.81;;;3.10;100.00
63006;BME280;53704;52.532;6.426;2023-04-08T00:15:35;102277.59;;;3.06;100.00
63006;BME280;53704;52.532;6.426;2023-04-08T00:18:01;102283.63;;;2.92;100.00
63006;BME280;53704;52.532;6.426;2023-04-08T00:20:26;102280.41;;;3.03;100.00
63006;BME280;53704;52.532;6.426;2023-04-08T00:22:51;102276.97;;;2.83;100.00
63006;BME280;53704;52.532;6.426;2023-04-08T00:25:17;102282.16;;;2.86;100.00
63006;BME280;53704;52.532;6.426;2023-04-08T00:27:42;102285.72;;;2.85;100.00
63006;BME280;53704;52.532;6.426;2023-04-08T00:30:08;102279.47;;;2.86;100.00
63006;BME280;53704;52.532;6.426;2023-04-08T00:32:34;102286.13;;;2.95;100.00
63006;BME280;53704;52.532;6.426;2023-04-08T00:34:59;102284.16;;;2.81;100.00
63006;BME280;53704;52.532;6.426;2023-04-08T00:37:25;102293.56;;;2.71;100.00
63006;BME280;53704;52.532;6.426;2023-04-08T00:39:50;102287.22;;;2.91;100.00
63006;BME280;53704;52.532;6.426;2023-04-08T00:42:18;102288.53;;;2.82;100.00
63006;BME280;53704;52.532;6.426;2023-04-08T00:44:43;102296.88;;;2.57;100.00
63006;BME280;53704;52.532;6.426;2023-04-08T00:47:12;102294.53;;;2.51;100.00
63006;BME280;53704;52.532;6.426;2023-04-08T00:49:41;102298.09;;;2.86;100.00
63006;BME280;53704;52.532;6.426;2023-04-08T00:52:08;102296.34;;;2.68;100.00
63006;BME280;53704;52.532;6.426;2023-04-08T00:54:35;102300.06;;;2.46;100.00
63006;BME280;53704;52.532;6.426;2023-04-08T00:57:01;102301.28;;;2.58;100.00
63006;BME280;53704;52.532;6.426;2023-04-08T00:59:28;102299.41;;;2.60;100.00
63006;BME280;53704;52.532;6.426;2023-04-08T01:07:37;102302.31;;;2.73;100.00
63006;BME280;53704;52.532;6.426;2023-04-08T01:10:15;102306.66;;;2.57;100.00
63006;BME280;53704;52.532;6.426;2023-04-08T01:13:05;102304.47;;;2.47;100.00
63006;BME280;53704;52.532;6.426;2023-04-08T01:15:34;102311.00;;;2.40;100.00
63006;BME280;53704;52.532;6.426;2023-04-08T01:18:05;102303.03;;;2.40;100.00
63006;BME280;53704;52.532;6.426;2023-04-08T01:20:31;102302.13;;;2.59;100.00
63006;BME280;53704;52.532;6.426;2023-04-08T01:25:33;102301.34;;;2.57;100.00
63006;BME280;53704;52.532;6.426;2023-04-08T01:28:01;102302.78;;;2.45;100.00
63006;BME280;53704;52.532;6.426;2023-04-08T01:30:28;102303.78;;;2.61;100.00
63006;BME280;53704;52.532;6.426;2023-04-08T01:32:55;102310.84;;;2.43;100.00
63006;BME280;53704;52.532;6.426;2023-04-08T01:35:22;102311.91;;;2.22;100.00
63006;BME280;53704;52.532;6.426;2023-04-08T01:37:49;102315.75;;;2.14;100.00
63006;BME280;53704;52.532;6.426;2023-04-08T01:40:16;102315.31;;;2.43;100.00
63006;BME280;53704;52.532;6.426;2023-04-08T01:42:43;102314.03;;;1.94;100.00
63006;BME280;53704;52.532;6.426;2023-04-08T01:45:10;102313.16;;;2.32;100.00
63006;BME280;53704;52.532;6.426;2023-04-08T01:47:36;102316.84;;;1.91;100.00
63006;BME280;53704;52.532;6.426;2023-04-08T01:50:03;102324.03;;;1.89;100.00
63006;BME280;53704;52.532;6.426;2023-04-08T01:52:32;102328.13;;;1.96;100.00
63006;BME280;53704;52.532;6.426;2023-04-08T01:54:59;102324.38;;;1.81;100.00
63006;BME280;53704;52.532;6.426;2023-04-08T01:57:27;102326.97;;;2.21;100.00
63006;BME280;53704;52.532;6.426;2023-04-08T01:59:55;102331.44;;;2.21;100.00
63006;BME280;53704;52.532;6.426;2023-04-08T02:02:25;102334.09;;;2.02;100.00
63006;BME280;53704;52.532;6.426;2023-04-08T02:04:52;102328.97;;;2.16;100.00
63006;BME280;53704;52.532;6.426;2023-04-08T02:07:18;102334.00;;;1.84;100.00
63006;BME280;53704;52.532;6.426;2023-04-08T02:09:43;102333.22;;;2.20;100.00
63006;BME280;53704;52.532;6.426;2023-04-08T02:12:09;102328.13;;;1.96;100.00
63006;BME280;53704;52.532;6.426;2023-04-08T02:14:35;102330.19;;;1.90;100.00
63006;BME280;53704;52.532;6.426;2023-04-08T02:17:08;102326.59;;;1.91;100.00
63006;BME280;53704;52.532;6.426;2023-04-08T02:19:40;102336.75;;;2.21;100.00
63006;BME280;53704;52.532;6.426;2023-04-08T02:22:24;102335.44;;;1.91;100.00
63006;BME280;53704;52.532;6.426;2023-04-08T02:24:52;102340.53;;;2.15;100.00
63006;BME280;53704;52.532;6.426;2023-04-08T02:27:18;102335.81;;;2.03;100.00
63006;BME280;53704;52.532;6.426;2023-04-08T02:29:44;102341.56;;;1.93;100.00
63006;BME280;53704;52.532;6.426;2023-04-08T02:32:11;102332.84;;;1.90;100.00
63006;BME280;53704;52.532;6.426;2023-04-08T02:34:40;102338.31;;;1.87;100.00
63006;BME280;53704;52.532;6.426;2023-04-08T02:37:07;102343.38;;;1.72;100.00
63006;BME280;53704;52.532;6.426;2023-04-08T02:39:33;102337.00;;;1.76;100.00
63006;BME280;53704;52.532;6.426;2023-04-08T02:41:59;102344.94;;;1.57;100.00
63006;BME280;53704;52.532;6.426;2023-04-08T02:44:25;102347.75;;;1.73;100.00
63006;BME280;53704;52.532;6.426;2023-04-08T02:46:50;102347.44;;;1.60;100.00
63006;BME280;53704;52.532;6.426;2023-04-08T02:49:16;102344.28;;;1.52;100.00
63006;BME280;53704;52.532;6.426;2023-04-08T02:51:41;102345.66;;;1.40;100.00
63006;BME280;53704;52.532;6.426;2023-04-08T02:54:06;102346.41;;;1.44;100.00
63006;BME280;53704;52.532;6.426;2023-04-08T02:56:32;102346.06;;;1.52;100.00
63006;BME280;53704;52.532;6.426;2023-04-08T02:58:57;102346.97;;;1.71;100.00
63006;BME280;53704;52.532;6.426;2023-04-08T03:01:23;102350.88;;;1.62;100.00
63006;BME280;53704;52.532;6.426;2023-04-08T03:03:48;102355.09;;;1.27;100.00
63006;BME280;53704;52.532;6.426;2023-04-08T03:06:14;102359.06;;;1.37;100.00
63006;BME280;53704;52.532;6.426;2023-04-08T03:08:40;102359.06;;;1.58;100.00
63006;BME280;53704;52.532;6.426;2023-04-08T03:11:05;102362.25;;;1.66;100.00
63006;BME280;53704;52.532;6.426;2023-04-08T03:13:31;102363.78;;;1.51;100.00
63006;BME280;53704;52.532;6.426;2023-04-08T03:15:56;102372.31;;;1.58;100.00
63006;BME280;53704;52.532;6.426;2023-04-08T03:18:23;102366.22;;;1.56;100.00
63006;BME280;53704;52.532;6.426;2023-04-08T03:20:48;102366.03;;;1.40;100.00
63006;BME280;53704;52.532;6.426;2023-04-08T03:23:14;102374.84;;;1.40;100.00
63006;BME280;53704;52.532;6.426;2023-04-08T03:25:40;102368.03;;;1.55;100.00
63006;BME280;53704;52.532;6.426;2023-04-08T03:28:05;102377.63;;;1.37;100.00
63006;BME280;53704;52.532;6.426;2023-04-08T03:30:31;102371.28;;;1.41;100.00
63006;BME280;53704;52.532;6.426;2023-04-08T03:32:56;102372.59;;;1.52;100.00
63006;BME280;53704;52.532;6.426;2023-04-08T03:35:22;102373.34;;;1.55;100.00
63006;BME280;53704;52.532;6.426;2023-04-08T03:37:47;102381.13;;;1.39;100.00
63006;BME280;53704;52.532;6.426;2023-04-08T03:40:13;102387.97;;;1.23;100.00
63006;BME280;53704;52.532;6.426;2023-04-08T03:42:39;102393.75;;;0.90;100.00
63006;BME280;53704;52.532;6.426;2023-04-08T03:45:05;102389.09;;;0.97;100.00
63006;BME280;53704;52.532;6.426;2023-04-08T03:47:30;102391.16;;;0.88;100.00
63006;BME280;53704;52.532;6.426;2023-04-08T03:49:56;102400.44;;;1.00;100.00
63006;BME280;53704;52.532;6.426;2023-04-08T03:52:21;102398.03;;;0.94;100.00
63006;BME280;53704;52.532;6.426;2023-04-08T03:54:47;102395.44;;;0.93;100.00
63006;BME280;53704;52.532;6.426;2023-04-08T03:57:12;102385.00;;;0.88;100.00
63006;BME280;53704;52.532;6.426;2023-04-08T03:59:38;102389.09;;;0.75;100.00
63006;BME280;53704;52.532;6.426;2023-04-08T04:02:05;102388.50;;;0.88;100.00
63006;BME280;53704;52.532;6.426;2023-04-08T04:04:31;102391.72;;;1.19;100.00
63006;BME280;53704;52.532;6.426;2023-04-08T04:06:56;102383.88;;;1.16;100.00
63006;BME280;53704;52.532;6.426;2023-04-08T04:09:22;102375.44;;;1.26;100.00
63006;BME280;53704;52.532;6.426;2023-04-08T04:11:47;102384.50;;;1.00;100.00
63006;BME280;53704;52.532;6.426;2023-04-08T04:14:13;102387.25;;;0.77;100.00
63006;BME280;53704;52.532;6.426;2023-04-08T04:16:38;102392.28;;;0.83;100.00
63006;BME280;53704;52.532;6.426;2023-04-08T04:19:03;102399.41;;;0.82;100.00
63006;BME280;53704;52.532;6.426;2023-04-08T04:21:29;102399.06;;;0.90;100.00
63006;BME280;53704;52.532;6.426;2023-04-08T04:23:55;102401.44;;;1.18;100.00
63006;BME280;53704;52.532;6.426;2023-04-08T04:26:20;102399.44;;;1.03;100.00
63006;BME280;53704;52.532;6.426;2023-04-08T04:28:46;102399.28;;;1.06;100.00
63006;BME280;53704;52.532;6.426;2023-04-08T04:31:21;102407.34;;;1.04;100.00
63006;BME280;53704;52.532;6.426;2023-04-08T04:33:50;102407.66;;;0.97;100.00
63006;BME280;53704;52.532;6.426;2023-04-08T04:36:15;102411.66;;;0.85;100.00
63006;BME280;53704;52.532;6.426;2023-04-08T04:38:41;102414.91;;;0.92;100.00
63006;BME280;53704;52.532;6.426;2023-04-08T04:41:09;102415.44;;;1.01;100.00
63006;BME280;53704;52.532;6.426;2023-04-08T04:43:35;102429.00;;;0.94;100.00
63006;BME280;53704;52.532;6.426;2023-04-08T04:46:01;102434.34;;;0.92;100.00
63006;BME280;53704;52.532;6.426;2023-04-08T04:48:31;102435.44;;;0.64;100.00
63006;BME280;53704;52.532;6.426;2023-04-08T04:50:58;102440.75;;;0.64;100.00
63006;BME280;53704;52.532;6.426;2023-04-08T04:53:24;102447.91;;;0.62;100.00
63006;BME280;53704;52.532;6.426;2023-04-08T04:55:50;102449.16;;;0.52;100.00
63006;BME280;53704;52.532;6.426;2023-04-08T04:58:16;102451.91;;;0.49;100.00
63006;BME280;53704;52.532;6.426;2023-04-08T05:00:42;102455.97;;;0.35;100.00
63006;BME280;53704;52.532;6.426;2023-04-08T05:03:07;102453.03;;;0.43;100.00
63006;BME280;53704;52.532;6.426;2023-04-08T05:05:33;102456.47;;;0.45;100.00
63006;BME280;53704;52.532;6.426;2023-04-08T05:07:58;102460.97;;;0.67;100.00
63006;BME280;53704;52.532;6.426;2023-04-08T05:10:24;102449.25;;;0.72;100.00
63006;BME280;53704;52.532;6.426;2023-04-08T05:12:49;102454.06;;;0.85;100.00
63006;BME280;53704;52.532;6.426;2023-04-08T05:15:14;102460.88;;;0.92;100.00
63006;BME280;53704;52.532;6.426;2023-04-08T05:17:40;102456.59;;;0.88;100.00
63006;BME280;53704;52.532;6.426;2023-04-08T05:20:06;102461.06;;;0.87;100.00
63006;BME280;53704;52.532;6.426;2023-04-08T05:22:32;102461.59;;;0.96;100.00
63006;BME280;53704;52.532;6.426;2023-04-08T05:24:58;102462.28;;;1.01;100.00
63006;BME280;53704;52.532;6.426;2023-04-08T05:27:24;102461.44;;;1.00;100.00
63006;BME280;53704;52.532;6.426;2023-04-08T05:29:49;102459.88;;;1.17;100.00
63006;BME280;53704;52.532;6.426;2023-04-08T05:32:15;102453.66;;;1.18;100.00
63006;BME280;53704;52.532;6.426;2023-04-08T05:34:41;102463.16;;;1.23;100.00
63006;BME280;53704;52.532;6.426;2023-04-08T05:37:07;102460.69;;;1.19;100.00
63006;BME280;53704;52.532;6.426;2023-04-08T05:39:32;102464.00;;;1.24;100.00
63006;BME280;53704;52.532;6.426;2023-04-08T05:41:57;102463.22;;;1.22;100.00
63006;BME280;53704;52.532;6.426;2023-04-08T05:44:23;102457.63;;;1.28;100.00
63006;BME280;53704;52.532;6.426;2023-04-08T05:46:48;102459.97;;;1.36;100.00
63006;BME280;53704;52.532;6.426;2023-04-08T05:49:13;102472.41;;;1.56;100.00
63006;BME280;53704;52.532;6.426;2023-04-08T05:51:41;102470.47;;;1.59;100.00
63006;BME280;53704;52.532;6.426;2023-04-08T05:54:06;102467.69;;;1.62;100.00
63006;BME280;53704;52.532;6.426;2023-04-08T05:56:32;102477.34;;;1.65;100.00
63006;BME280;53704;52.532;6.426;2023-04-08T05:58:57;102468.91;;;1.76;100.00
63006;BME280;53704;52.532;6.426;2023-04-08T06:01:23;102479.41;;;1.79;100.00
63006;BME280;53704;52.532;6.426;2023-04-08T06:03:49;102472.28;;;1.79;100.00
63006;BME280;53704;52.532;6.426;2023-04-08T06:06:16;102486.41;;;1.80;100.00
63006;BME280;53704;52.532;6.426;2023-04-08T06:08:42;102491.47;;;1.86;100.00
63006;BME280;53704;52.532;6.426;2023-04-08T06:11:07;102487.69;;;1.92;100.00
63006;BME280;53704;52.532;6.426;2023-04-08T06:13:33;102484.66;;;2.01;100.00
63006;BME280;53704;52.532;6.426;2023-04-08T06:16:09;102493.25;;;2.06;100.00
63006;BME280;53704;52.532;6.426;2023-04-08T06:18:35;102490.13;;;2.17;100.00
63006;BME280;53704;52.532;6.426;2023-04-08T06:21:00;102488.84;;;2.26;100.00
63006;BME280;53704;52.532;6.426;2023-04-08T06:23:26;102491.03;;;2.37;100.00
63006;BME280;53704;52.532;6.426;2023-04-08T06:25:52;102505.84;;;2.42;100.00
63006;BME280;53704;52.532;6.426;2023-04-08T06:28:18;102514.03;;;2.38;100.00
63006;BME280;53704;52.532;6.426;2023-04-08T06:30:45;102511.16;;;2.42;100.00
63006;BME280;53704;52.532;6.426;2023-04-08T06:33:11;102510.06;;;2.46;100.00
63006;BME280;53704;52.532;6.426;2023-04-08T06:35:36;102511.94;;;2.44;100.00
63006;BME280;53704;52.532;6.426;2023-04-08T06:38:02;102516.28;;;2.47;100.00
63006;BME280;53704;52.532;6.426;2023-04-08T06:40:28;102526.38;;;2.39;100.00
63006;BME280;53704;52.532;6.426;2023-04-08T06:42:54;102521.94;;;2.39;100.00
63006;BME280;53704;52.532;6.426;2023-04-08T06:45:19;102521.53;;;2.48;100.00
63006;BME280;53704;52.532;6.426;2023-04-08T06:47:45;102526.84;;;2.67;100.00
63006;BME280;53704;52.532;6.426;2023-04-08T06:50:10;102533.47;;;2.78;100.00
63006;BME280;53704;52.532;6.426;2023-04-08T06:52:36;102533.59;;;2.75;100.00
63006;BME280;53704;52.532;6.426;2023-04-08T06:55:02;102540.53;;;2.79;100.00
63006;BME280;53704;52.532;6.426;2023-04-08T06:57:27;102544.81;;;2.81;100.00
63006;BME280;53704;52.532;6.426;2023-04-08T06:59:52;102536.91;;;2.80;100.00
63006;BME280;53704;52.532;6.426;2023-04-08T07:02:18;102549.06;;;2.85;100.00
63006;BME280;53704;52.532;6.426;2023-04-08T07:04:43;102545.47;;;3.05;100.00
63006;BME280;53704;52.532;6.426;2023-04-08T07:07:09;102545.56;;;3.04;100.00
63006;BME280;53704;52.532;6.426;2023-04-08T07:09:34;102550.81;;;3.05;100.00
63006;BME280;53704;52.532;6.426;2023-04-08T07:12:01;102548.13;;;3.24;100.00
63006;BME280;53704;52.532;6.426;2023-04-08T07:14:28;102553.50;;;3.42;100.00
63006;BME280;53704;52.532;6.426;2023-04-08T07:16:54;102553.28;;;3.47;100.00
63006;BME280;53704;52.532;6.426;2023-04-08T07:19:20;102549.06;;;3.60;100.00
63006;BME280;53704;52.532;6.426;2023-04-08T07:21:47;102551.03;;;3.74;100.00
63006;BME280;53704;52.532;6.426;2023-04-08T07:24:12;102550.72;;;3.80;100.00
63006;BME280;53704;52.532;6.426;2023-04-08T07:26:38;102557.59;;;3.84;100.00
63006;BME280;53704;52.532;6.426;2023-04-08T07:29:03;102566.56;;;3.83;100.00
63006;BME280;53704;52.532;6.426;2023-04-08T07:31:29;102563.81;;;3.85;100.00
63006;BME280;53704;52.532;6.426;2023-04-08T07:33:54;102561.06;;;3.86;100.00
63006;BME280;53704;52.532;6.426;2023-04-08T07:36:20;102568.59;;;3.95;100.00
63006;BME280;53704;52.532;6.426;2023-04-08T07:38:45;102565.59;;;4.02;100.00
63006;BME280;53704;52.532;6.426;2023-04-08T07:41:11;102560.53;;;4.14;100.00
63006;BME280;53704;52.532;6.426;2023-04-08T07:43:37;102562.28;;;4.31;100.00
63006;BME280;53704;52.532;6.426;2023-04-08T07:46:04;102571.59;;;4.58;100.00
63006;BME280;53704;52.532;6.426;2023-04-08T07:48:30;102564.97;;;4.65;100.00
63006;BME280;53704;52.532;6.426;2023-04-08T07:50:57;102565.38;;;4.75;100.00
63006;BME280;53704;52.532;6.426;2023-04-08T07:53:22;102573.41;;;4.57;100.00
63006;BME280;53704;52.532;6.426;2023-04-08T07:55:49;102566.94;;;4.61;100.00
63006;BME280;53704;52.532;6.426;2023-04-08T07:58:14;102578.44;;;4.63;100.00
63006;BME280;53704;52.532;6.426;2023-04-08T08:00:40;102576.63;;;4.80;100.00
63006;BME280;53704;52.532;6.426;2023-04-08T08:03:05;102578.25;;;5.16;100.00
63006;BME280;53704;52.532;6.426;2023-04-08T08:05:30;102580.13;;;5.46;100.00
63006;BME280;53704;52.532;6.426;2023-04-08T08:07:56;102586.31;;;5.62;100.00
63006;BME280;53704;52.532;6.426;2023-04-08T08:10:21;102591.72;;;5.76;100.00
63006;BME280;53704;52.532;6.426;2023-04-08T08:12:47;102594.97;;;5.82;100.00
63006;BME280;53704;52.532;6.426;2023-04-08T08:15:12;102582.56;;;5.96;100.00
63006;BME280;53704;52.532;6.426;2023-04-08T08:17:37;102581.63;;;6.12;100.00
63006;BME280;53704;52.532;6.426;2023-04-08T08:20:03;102582.25;;;6.17;100.00
63006;BME280;53704;52.532;6.426;2023-04-08T08:22:29;102580.13;;;6.08;100.00
63006;BME280;53704;52.532;6.426;2023-04-08T08:24:55;102573.06;;;6.21;100.00
63006;BME280;53704;52.532;6.426;2023-04-08T08:27:22;102573.59;;;6.42;100.00
63006;BME280;53704;52.532;6.426;2023-04-08T08:29:47;102575.72;;;6.51;100.00
63006;BME280;53704;52.532;6.426;2023-04-08T08:32:13;102575.81;;;6.50;100.00
63006;BME280;53704;52.532;6.426;2023-04-08T08:34:38;102574.72;;;6.52;100.00
63006;BME280;53704;52.532;6.426;2023-04-08T08:37:03;102574.25;;;6.60;100.00
63006;BME280;53704;52.532;6.426;2023-04-08T08:39:29;102580.28;;;6.78;100.00
63006;BME280;53704;52.532;6.426;2023-04-08T08:41:55;102580.69;;;6.72;100.00
63006;BME280;53704;52.532;6.426;2023-04-08T08:44:21;102578.97;;;6.71;100.00
63006;BME280;53704;52.532;6.426;2023-04-08T08:46:46;102572.84;;;6.83;100.00
63006;BME280;53704;52.532;6.426;2023-04-08T08:49:13;102574.03;;;7.06;100.00
63006;BME280;53704;52.532;6.426;2023-04-08T08:51:39;102569.53;;;7.21;100.00
63006;BME280;53704;52.532;6.426;2023-04-08T08:54:05;102566.94;;;7.20;100.00
63006;BME280;53704;52.532;6.426;2023-04-08T08:56:32;102572.41;;;7.18;100.00
63006;BME280;53704;52.532;6.426;2023-04-08T08:58:58;102572.59;;;7.15;100.00
63006;BME280;53704;52.532;6.426;2023-04-08T09:01:36;102585.81;;;7.18;100.00
63006;BME280;53704;52.532;6.426;2023-04-08T09:04:09;102585.22;;;7.28;100.00
63006;BME280;53704;52.532;6.426;2023-04-08T09:06:36;102589.84;;;7.38;100.00
63006;BME280;53704;52.532;6.426;2023-04-08T09:09:03;102597.41;;;7.46;100.00
63006;BME280;53704;52.532;6.426;2023-04-08T09:11:30;102612.88;;;7.55;100.00
63006;BME280;53704;52.532;6.426;2023-04-08T09:13:57;102612.97;;;7.54;100.00
63006;BME280;53704;52.532;6.426;2023-04-08T09:16:22;102615.16;;;7.61;100.00
63006;BME280;53704;52.532;6.426;2023-04-08T09:18:48;102603.22;;;7.53;100.00
63006;BME280;53704;52.532;6.426;2023-04-08T09:21:15;102610.09;;;7.57;100.00
63006;BME280;53704;52.532;6.426;2023-04-08T09:23:50;102615.41;;;7.71;100.00
63006;BME280;53704;52.532;6.426;2023-04-08T09:26:18;102602.47;;;8.18;100.00
63006;BME280;53704;52.532;6.426;2023-04-08T09:29:02;102606.72;;;8.08;100.00
63006;BME280;53704;52.532;6.426;2023-04-08T09:31:30;102598.84;;;8.32;100.00
63006;BME280;53704;52.532;6.426;2023-04-08T09:33:58;102603.25;;;8.46;100.00
63006;BME280;53704;52.532;6.426;2023-04-08T09:36:25;102597.72;;;8.62;100.00
63006;BME280;53704;52.532;6.426;2023-04-08T09:38:52;102591.00;;;8.42;100.00
63006;BME280;53704;52.532;6.426;2023-04-08T09:41:21;102595.53;;;8.41;100.00
63006;BME280;53704;52.532;6.426;2023-04-08T09:43:52;102602.09;;;8.76;100.00
63006;BME280;53704;52.532;6.426;2023-04-08T09:46:25;102597.06;;;8.84;100.00
63006;BME280;53704;52.532;6.426;2023-04-08T09:49:00;102601.25;;;8.62;100.00
63006;BME280;53704;52.532;6.426;2023-04-08T09:51:32;102615.28;;;8.92;100.00
63006;BME280;53704;52.532;6.426;2023-04-08T09:54:01;102613.91;;;8.86;100.00
63006;BME280;53704;52.532;6.426;2023-04-08T09:56:40;102611.28;;;9.10;100.00
63006;BME280;53704;52.532;6.426;2023-04-08T09:59:13;102612.59;;;9.04;100.00
63006;BME280;53704;52.532;6.426;2023-04-08T10:01:45;102610.88;;;9.40;100.00
63006;BME280;53704;52.532;6.426;2023-04-08T10:04:14;102607.75;;;9.47;100.00
63006;BME280;53704;52.532;6.426;2023-04-08T10:06:41;102607.13;;;9.67;100.00
63006;BME280;53704;52.532;6.426;2023-04-08T10:09:07;102598.03;;;9.57;100.00
63006;BME280;53704;52.532;6.426;2023-04-08T10:11:35;102601.75;;;9.43;100.00
63006;BME280;53704;52.532;6.426;2023-04-08T10:14:01;102604.88;;;9.37;100.00
63006;BME280;53704;52.532;6.426;2023-04-08T10:16:27;102604.47;;;9.30;100.00
63006;BME280;53704;52.532;6.426;2023-04-08T10:18:54;102613.31;;;9.19;100.00
63006;BME280;53704;52.532;6.426;2023-04-08T10:21:33;102611.56;;;9.31;100.00
63006;BME280;53704;52.532;6.426;2023-04-08T10:23:59;102602.03;;;9.27;100.00
63006;BME280;53704;52.532;6.426;2023-04-08T10:31:44;102602.72;;;9.90;100.00
63006;BME280;53704;52.532;6.426;2023-04-08T10:34:20;102603.66;;;10.13;100.00
63006;BME280;53704;52.532;6.426;2023-04-08T10:36:47;102600.59;;;10.18;100.00
63006;BME280;53704;52.532;6.426;2023-04-08T10:39:14;102594.16;;;10.32;100.00
63006;BME280;53704;52.532;6.426;2023-04-08T10:41:43;102590.63;;;9.96;100.00
63006;BME280;53704;52.532;6.426;2023-04-08T10:44:16;102591.28;;;10.58;100.00
63006;BME280;53704;52.532;6.426;2023-04-08T10:46:42;102595.47;;;10.50;100.00
63006;BME280;53704;52.532;6.426;2023-04-08T10:49:08;102594.88;;;10.23;100.00
63006;BME280;53704;52.532;6.426;2023-04-08T10:51:33;102590.25;;;10.25;100.00
63006;BME280;53704;52.532;6.426;2023-04-08T10:54:09;102602.38;;;9.95;100.00
63006;BME280;53704;52.532;6.426;2023-04-08T10:56:48;102583.38;;;10.90;100.00
63006;BME280;53704;52.532;6.426;2023-04-08T10:59:16;102582.25;;;11.15;100.00
63006;BME280;53704;52.532;6.426;2023-04-08T11:01:43;102582.50;;;11.01;100.00
63006;BME280;53704;52.532;6.426;2023-04-08T11:04:13;102587.50;;;11.17;100.00
63006;BME280;53704;52.532;6.426;2023-04-08T11:06:41;102584.44;;;10.99;100.00
63006;BME280;53704;52.532;6.426;2023-04-08T11:09:06;102591.16;;;11.27;100.00
63006;BME280;53704;52.532;6.426;2023-04-08T11:11:33;102580.03;;;10.64;100.00
63006;BME280;53704;52.532;6.426;2023-04-08T11:13:58;102579.91;;;10.54;100.00
63006;BME280;53704;52.532;6.426;2023-04-08T11:16:25;102583.81;;;11.29;100.00
63006;BME280;53704;52.532;6.426;2023-04-08T11:18:52;102581.84;;;11.75;100.00
63006;BME280;53704;52.532;6.426;2023-04-08T11:21:18;102582.06;;;11.39;100.00
63006;BME280;53704;52.532;6.426;2023-04-08T11:23:43;102577.63;;;10.83;100.00
63006;BME280;53704;52.532;6.426;2023-04-08T11:26:09;102579.56;;;10.70;100.00
63006;BME280;53704;52.532;6.426;2023-04-08T11:28:35;102598.03;;;10.97;100.00
63006;BME280;53704;52.532;6.426;2023-04-08T11:31:04;102588.16;;;10.98;100.00
63006;BME280;53704;52.532;6.426;2023-04-08T11:33:30;102587.13;;;11.33;100.00
63006;BME280;53704;52.532;6.426;2023-04-08T11:35:56;102588.53;;;11.59;100.00
63006;BME280;53704;52.532;6.426;2023-04-08T11:38:23;102585.38;;;11.32;100.00
63006;BME280;53704;52.532;6.426;2023-04-08T11:40:56;102590.69;;;11.22;100.00
63006;BME280;53704;52.532;6.426;2023-04-08T11:43:23;102582.09;;;11.72;100.00
63006;BME280;53704;52.532;6.426;2023-04-08T11:45:48;102571.66;;;12.32;100.00
63006;BME280;53704;52.532;6.426;2023-04-08T11:48:15;102580.06;;;11.97;100.00
63006;BME280;53704;52.532;6.426;2023-04-08T11:50:42;102576.06;;;12.95;100.00
63006;BME280;53704;52.532;6.426;2023-04-08T11:53:21;102583.75;;;12.59;100.00
63006;BME280;53704;52.532;6.426;2023-04-08T11:55:49;102581.84;;;12.28;100.00
63006;BME280;53704;52.532;6.426;2023-04-08T11:58:14;102586.06;;;12.00;100.00
63006;BME280;53704;52.532;6.426;2023-04-08T12:00:40;102593.41;;;11.66;100.00
63006;BME280;53704;52.532;6.426;2023-04-08T12:03:07;102587.59;;;11.82;100.00
63006;BME280;53704;52.532;6.426;2023-04-08T12:05:32;102590.25;;;11.93;100.00
63006;BME280;53704;52.532;6.426;2023-04-08T12:07:58;102581.84;;;12.28;100.00
63006;BME280;53704;52.532;6.426;2023-04-08T12:10:24;102589.63;;;11.89;100.00
63006;BME280;53704;52.532;6.426;2023-04-08T12:12:49;102580.47;;;12.13;100.00
63006;BME280;53704;52.532;6.426;2023-04-08T12:15:15;102587.91;;;12.42;100.00
63006;BME280;53704;52.532;6.426;2023-04-08T12:17:41;102593.00;;;12.66;100.00
63006;BME280;53704;52.532;6.426;2023-04-08T12:20:08;102593.25;;;12.32;100.00
63006;BME280;53704;52.532;6.426;2023-04-08T12:22:34;102589.88;;;12.61;100.00
63006;BME280;53704;52.532;6.426;2023-04-08T12:24:59;102594.56;;;11.96;100.00
63006;BME280;53704;52.532;6.426;2023-04-08T12:27:27;102589.28;;;12.36;100.00
63006;BME280;53704;52.532;6.426;2023-04-08T12:29:52;102595.75;;;12.45;100.00
63006;BME280;53704;52.532;6.426;2023-04-08T12:32:17;102598.50;;;12.12;100.00
63006;BME280;53704;52.532;6.426;2023-04-08T12:34:43;102601.81;;;12.16;100.00
63006;BME280;53704;52.532;6.426;2023-04-08T12:37:08;102595.16;;;13.44;100.00
63006;BME280;53704;52.532;6.426;2023-04-08T12:39:34;102596.31;;;13.10;100.00
63006;BME280;53704;52.532;6.426;2023-04-08T12:42:00;102594.44;;;13.42;100.00
63006;BME280;53704;52.532;6.426;2023-04-08T12:44:25;102594.78;;;13.68;100.00
63006;BME280;53704;52.532;6.426;2023-04-08T12:46:51;102592.44;;;13.44;100.00
63006;BME280;53704;52.532;6.426;2023-04-08T12:49:16;102595.31;;;13.52;100.00
63006;BME280;53704;52.532;6.426;2023-04-08T12:51:41;102602.53;;;12.60;100.00
63006;BME280;53704;52.532;6.426;2023-04-08T12:54:07;102598.38;;;12.14;100.00
63006;BME280;53704;52.532;6.426;2023-04-08T12:56:33;102595.59;;;13.49;100.00
63006;BME280;53704;52.532;6.426;2023-04-08T12:58:59;102597.22;;;13.81;100.00